createdAt,value
2023-04-09T00:01:56.602Z,15.76
2023-04-09T00:06:59.244Z,15.77
2023-04-09T00:12:02.553Z,15.72
2023-04-09T00:17:06.831Z,15.69
2023-04-09T00:22:08.991Z,15.72
2023-04-09T00:27:11.645Z,15.76
2023-04-09T00:32:15.112Z,15.73
2023-04-09T00:37:17.358Z,15.69
2023-04-09T00:42:20.175Z,15.64
2023-04-09T00:47:22.248Z,15.46
2023-04-09T00:52:25.084Z,15.49
2023-04-09T00:57:29.046Z,15.36
2023-04-09T01:02:32.511Z,15.30
2023-04-09T01:07:38.328Z,15.18
2023-04-09T01:13:16.407Z,15.07
2023-04-09T01:18:31.018Z,14.96
2023-04-09T01:23:51.431Z,14.96
2023-04-09T01:28:55.294Z,14.78
2023-04-09T01:33:58.850Z,14.72
2023-04-09T01:39:02.552Z,14.74
2023-04-09T01:44:07.068Z,14.60
2023-04-09T01:49:14.153Z,14.64
2023-04-09T01:54:20.069Z,14.60
2023-04-09T01:59:22.337Z,14.59
2023-04-09T02:04:28.457Z,14.60
2023-04-09T02:09:31.831Z,14.49
2023-04-09T02:14:34.091Z,14.38
2023-04-09T02:19:46.239Z,14.18
2023-04-09T02:24:50.286Z,14.22
2023-04-09T02:29:53.309Z,14.20
2023-04-09T02:34:55.746Z,14.15
2023-04-09T02:39:57.817Z,13.91
2023-04-09T02:44:59.902Z,13.91
2023-04-09T02:50:03.252Z,13.83
2023-04-09T02:55:11.428Z,13.64
2023-04-09T03:00:14.202Z,13.65
2023-04-09T03:05:16.407Z,13.44
2023-04-09T03:10:19.169Z,13.37
2023-04-09T03:15:22.404Z,13.29
2023-04-09T03:20:26.008Z,13.20
2023-04-09T03:25:28.388Z,13.12
2023-04-09T03:30:31.465Z,13.02
2023-04-09T03:35:35.012Z,13.04
2023-04-09T03:40:38.794Z,12.92
2023-04-09T03:45:42.369Z,12.83
2023-04-09T03:51:15.451Z,12.85
2023-04-09T03:56:24.382Z,12.82
2023-04-09T04:01:27.192Z,12.77
2023-04-09T04:06:35.903Z,12.69
2023-04-09T04:11:59.305Z,12.67
2023-04-09T04:17:16.392Z,12.52
2023-04-09T04:22:19.351Z,12.38
2023-04-09T04:27:25.538Z,12.26
2023-04-09T04:32:29.889Z,12.22
2023-04-09T04:37:36.654Z,12.22
2023-04-09T04:42:39.473Z,12.09
2023-04-09T04:47:47.145Z,12.10
2023-04-09T04:52:50.347Z,11.88
2023-04-09T04:57:52.830Z,11.75
2023-04-09T05:02:59.345Z,11.56
2023-04-09T05:08:22.416Z,11.52
2023-04-09T05:13:35.556Z,11.50
2023-04-09T05:18:42.260Z,11.41
2023-04-09T05:23:44.910Z,11.41
2023-04-09T05:28:48.013Z,11.39
2023-04-09T05:33:54.534Z,11.33
2023-04-09T05:39:07.307Z,11.23
2023-04-09T05:44:10.670Z,11.15
2023-04-09T05:49:14.624Z,11.19
2023-04-09T05:54:21.927Z,11.21
2023-04-09T05:59:25.191Z,11.18
2023-04-09T06:04:28.163Z,11.18
2023-04-09T06:09:31.155Z,11.10
2023-04-09T06:14:33.453Z,11.26
2023-04-09T06:19:35.927Z,11.25
2023-04-09T06:24:38.018Z,11.09
2023-04-09T06:29:40.160Z,11.21
2023-04-09T06:34:43.739Z,11.15
2023-04-09T06:39:58.196Z,11.24
2023-04-09T06:45:08.662Z,11.34
2023-04-09T06:50:11.094Z,11.45
2023-04-09T06:55:14.161Z,11.57
2023-04-09T07:00:16.702Z,11.56
2023-04-09T07:05:19.015Z,11.73
2023-04-09T07:10:21.402Z,11.83
2023-04-09T07:15:24.026Z,11.93
2023-04-09T07:20:27.047Z,12.05
2023-04-09T07:25:29.196Z,12.16
2023-04-09T07:30:33.648Z,12.28
2023-04-09T07:35:36.074Z,12.53
2023-04-09T07:40:38.212Z,12.74
2023-04-09T07:45:40.458Z,12.83
2023-04-09T07:50:42.902Z,12.98
2023-04-09T07:55:45.464Z,13.17
2023-04-09T08:00:49.058Z,13.31
2023-04-09T08:05:51.144Z,13.43
2023-04-09T08:10:53.829Z,13.65
2023-04-09T08:15:56.804Z,13.89
2023-04-09T08:20:58.894Z,14.02
2023-04-09T08:26:01.735Z,14.37
2023-04-09T08:31:03.868Z,14.69
2023-04-09T08:36:09.626Z,15.05
2023-04-09T08:41:22.191Z,15.56
2023-04-09T08:46:25.287Z,16.00
2023-04-09T08:51:28.945Z,16.50
2023-04-09T08:56:34.139Z,17.25
2023-04-09T09:01:38.256Z,18.16
2023-04-09T09:06:42.200Z,19.07
2023-04-09T09:11:50.381Z,19.72
2023-04-09T09:16:58.862Z,20.27
2023-04-09T09:22:08.322Z,20.35
2023-04-09T09:27:10.712Z,21.43
2023-04-09T09:32:14.194Z,21.81
2023-04-09T09:37:28.900Z,21.87
2023-04-09T09:42:32.257Z,22.26
2023-04-09T09:47:36.823Z,22.47
2023-04-09T09:52:42.349Z,22.75
2023-04-09T09:57:45.676Z,22.93
2023-04-09T10:02:54.498Z,23.22
2023-04-09T10:15:32.236Z,23.66
2023-04-09T10:20:59.311Z,24.09
2023-04-09T10:26:01.826Z,24.49
2023-04-09T10:31:08.904Z,24.91
2023-04-09T10:36:13.187Z,24.95
2023-04-09T10:41:29.666Z,24.82
2023-04-09T10:46:36.570Z,25.04
2023-04-09T10:51:40.943Z,25.48
2023-04-09T10:57:09.264Z,25.91
2023-04-09T11:02:39.468Z,26.12
2023-04-09T11:07:47.948Z,26.11
2023-04-09T11:12:50.041Z,26.28
2023-04-09T11:17:52.503Z,26.48
2023-04-09T11:22:56.217Z,26.43
2023-04-09T11:28:01.349Z,26.66
2023-04-09T11:33:03.758Z,26.40
2023-04-09T11:38:09.628Z,26.61
2023-04-09T11:43:13.730Z,26.36
2023-04-09T11:48:18.986Z,26.36
2023-04-09T11:53:23.142Z,26.44
2023-04-09T11:58:26.639Z,26.31
2023-04-09T12:03:37.284Z,26.27
2023-04-09T12:08:39.570Z,26.09
2023-04-09T12:13:44.799Z,25.96
2023-04-09T12:18:47.824Z,25.88
2023-04-09T12:23:49.895Z,25.76
2023-04-09T12:28:52.388Z,25.56
2023-04-09T12:33:54.777Z,25.67
2023-04-09T12:38:56.984Z,25.50
2023-04-09T12:43:59.219Z,25.45
2023-04-09T12:49:01.977Z,25.48
2023-04-09T12:54:05.017Z,25.38
2023-04-09T12:59:07.212Z,25.54
2023-04-09T13:04:09.912Z,25.42
2023-04-09T13:09:12.544Z,25.27
2023-04-09T13:14:16.444Z,25.33
2023-04-09T13:19:19.395Z,25.38
2023-04-09T13:24:21.582Z,25.53
2023-04-09T13:29:23.658Z,25.51
2023-04-09T13:34:26.140Z,25.48
2023-04-09T13:39:28.122Z,25.35
2023-04-09T13:44:30.327Z,25.38
2023-04-09T13:49:32.786Z,25.52
2023-04-09T13:54:35.027Z,25.50
2023-04-09T13:59:38.322Z,25.50
2023-04-09T14:04:40.689Z,25.45
2023-04-09T14:09:44.616Z,25.56
2023-04-09T14:14:46.600Z,25.56
2023-04-09T14:19:48.525Z,25.67
2023-04-09T14:24:51.364Z,25.71
2023-04-09T14:29:53.944Z,25.56
2023-04-09T14:34:56.025Z,25.73
2023-04-09T14:40:00.462Z,25.67
2023-04-09T14:45:02.827Z,25.70
2023-04-09T14:50:05.505Z,25.61
2023-04-09T14:55:12.362Z,25.66
2023-04-09T15:00:15.028Z,25.57
2023-04-09T15:05:17.374Z,25.64
2023-04-09T15:10:19.900Z,25.76
2023-04-09T15:15:22.755Z,25.75
2023-04-09T15:20:25.473Z,25.68
2023-04-09T15:25:32.986Z,25.56
2023-04-09T15:30:37.524Z,25.57
2023-04-09T15:35:40.140Z,25.80
2023-04-09T15:40:42.860Z,25.63
2023-04-09T15:45:45.471Z,25.64
2023-04-09T15:50:47.639Z,25.52
2023-04-09T15:55:50.102Z,25.59
2023-04-09T16:00:53.544Z,25.37
2023-04-09T16:05:57.430Z,25.51
2023-04-09T16:10:59.483Z,25.49
2023-04-09T16:16:01.963Z,25.64
2023-04-09T16:21:04.537Z,25.60
2023-04-09T16:26:07.589Z,25.42
2023-04-09T16:31:09.664Z,25.46
2023-04-09T16:36:11.979Z,25.50
2023-04-09T16:41:16.085Z,25.34
2023-04-09T16:46:19.266Z,25.21
2023-04-09T16:51:21.364Z,25.14
2023-04-09T16:56:23.491Z,25.10
2023-04-09T17:01:25.791Z,25.15
2023-04-09T17:06:28.111Z,25.13
2023-04-09T17:11:30.526Z,25.13
2023-04-09T17:16:33.549Z,24.94
2023-04-09T17:21:35.884Z,24.99
2023-04-09T17:26:38.323Z,24.97
2023-04-09T17:31:40.512Z,24.91
2023-04-09T17:36:43.002Z,24.74
2023-04-09T17:41:45.259Z,24.69
2023-04-09T17:46:47.533Z,24.57
2023-04-09T17:51:49.659Z,24.37
2023-04-09T17:56:52.676Z,24.20
2023-04-09T18:01:55.446Z,24.05
2023-04-09T18:06:58.542Z,24.00
2023-04-09T18:12:02.908Z,23.87
2023-04-09T18:17:05.086Z,23.82
2023-04-09T18:22:07.149Z,23.75
2023-04-09T18:27:09.360Z,23.64
2023-04-09T18:32:11.688Z,23.46
2023-04-09T18:37:14.796Z,23.32
2023-04-09T18:42:16.884Z,23.28
2023-04-09T18:47:18.893Z,23.19
2023-04-09T18:52:20.885Z,23.16
2023-04-09T18:57:23.792Z,23.02
2023-04-09T19:02:26.332Z,22.85
2023-04-09T19:07:28.556Z,22.77
2023-04-09T19:12:31.391Z,22.52
2023-04-09T19:17:34.626Z,22.42
2023-04-09T19:22:37.639Z,22.19
2023-04-09T19:27:40.105Z,22.08
2023-04-09T19:32:43.460Z,22.04
2023-04-09T19:37:45.610Z,21.98
2023-04-09T19:42:48.619Z,21.89
2023-04-09T19:47:51.062Z,21.75
2023-04-09T19:52:55.688Z,21.72
2023-04-09T19:57:58.908Z,21.64
2023-04-09T20:03:01.474Z,21.43
2023-04-09T20:08:04.887Z,21.30
2023-04-09T20:13:08.974Z,21.10
2023-04-09T20:18:14.169Z,20.98
2023-04-09T20:23:16.526Z,20.85
2023-04-09T20:28:19.525Z,20.70
2023-04-09T20:33:23.172Z,20.62
2023-04-09T20:38:26.354Z,20.69
2023-04-09T20:43:28.532Z,20.62
2023-04-09T20:48:31.758Z,20.51
2023-04-09T20:53:34.220Z,20.36
2023-04-09T20:58:36.875Z,20.25
2023-04-09T21:03:40.449Z,20.16
2023-04-09T21:08:43.836Z,20.12
2023-04-09T21:13:54.568Z,20.17
2023-04-09T21:18:57.567Z,20.03
2023-04-09T21:24:01.751Z,20.10
2023-04-09T21:29:04.333Z,20.07
2023-04-09T21:34:07.319Z,19.88
2023-04-09T21:39:09.628Z,19.83
2023-04-09T21:44:13.288Z,19.71
2023-04-09T21:49:16.255Z,19.62
2023-04-09T21:54:18.492Z,19.49
2023-04-09T21:59:43.298Z,19.36
2023-04-09T22:04:47.659Z,19.28
2023-04-09T22:09:49.782Z,19.14
2023-04-09T22:14:52.409Z,19.05
2023-04-09T22:19:54.461Z,19.05
2023-04-09T22:24:56.838Z,19.04
2023-04-09T22:29:59.257Z,19.01
2023-04-09T22:35:01.946Z,18.89
2023-04-09T22:40:05.933Z,18.82
2023-04-09T22:45:10.782Z,18.69
2023-04-09T22:50:14.513Z,18.64
2023-04-09T22:55:16.783Z,18.54
2023-04-09T23:00:19.864Z,18.50
2023-04-09T23:05:22.331Z,18.39
2023-04-09T23:10:26.600Z,18.39
2023-04-09T23:15:29.096Z,18.42
2023-04-09T23:20:31.859Z,18.38
2023-04-09T23:25:34.275Z,18.27
2023-04-09T23:30:36.394Z,18.12
2023-04-09T23:35:40.218Z,18.07
2023-04-09T23:40:43.331Z,18.17
2023-04-09T23:45:45.379Z,18.19
2023-04-09T23:50:48.254Z,18.27
2023-04-09T23:55:51.233Z,18.17
